createdAt,value
2018-06-09T00:00:33.618Z,19.70
2018-06-09T00:03:02.381Z,19.70
2018-06-09T00:05:31.265Z,19.70
2018-06-09T00:07:59.993Z,19.70
2018-06-09T00:10:28.697Z,19.70
2018-06-09T00:12:57.506Z,19.70
2018-06-09T00:15:31.921Z,19.60
2018-06-09T00:18:00.697Z,19.60
2018-06-09T00:20:29.558Z,19.60
2018-06-09T00:22:58.434Z,19.60
2018-06-09T00:25:27.155Z,19.60
2018-06-09T00:27:55.869Z,19.60
2018-06-09T00:30:24.620Z,19.60
2018-06-09T00:32:53.337Z,19.60
2018-06-09T00:35:23.253Z,19.60
2018-06-09T00:37:51.974Z,19.60
2018-06-09T00:40:20.694Z,19.50
2018-06-09T00:42:49.413Z,19.60
2018-06-09T00:45:18.158Z,19.50
2018-06-09T00:47:46.869Z,19.50
2018-06-09T00:50:15.602Z,19.50
2018-06-09T00:52:44.321Z,19.50
2018-06-09T00:55:13.041Z,19.40
2018-06-09T00:57:41.787Z,19.40
2018-06-09T01:00:10.505Z,19.40
2018-06-09T01:02:39.273Z,19.40
2018-06-09T01:05:08.001Z,19.40
2018-06-09T01:07:36.805Z,19.40
2018-06-09T01:12:33.958Z,19.40
2018-06-09T01:15:02.703Z,19.40
2018-06-09T01:17:31.409Z,19.40
2018-06-09T01:20:00.945Z,19.40
2018-06-09T01:22:29.791Z,19.40
2018-06-09T01:24:58.517Z,19.30
2018-06-09T01:27:27.294Z,19.30
2018-06-09T01:29:56.002Z,19.30
2018-06-09T01:32:24.734Z,19.30
2018-06-09T01:34:53.534Z,19.20
2018-06-09T01:37:22.245Z,19.30
2018-06-09T01:39:50.957Z,19.30
2018-06-09T01:42:19.696Z,19.20
2018-06-09T01:44:48.414Z,19.20
2018-06-09T01:47:17.329Z,19.20
2018-06-09T01:49:46.065Z,19.10
2018-06-09T01:52:14.789Z,19.10
2018-06-09T01:54:44.582Z,19.10
2018-06-09T01:57:13.294Z,19.10
2018-06-09T01:59:42.037Z,19.10
2018-06-09T02:02:10.745Z,19.10
2018-06-09T02:04:39.461Z,19.10
2018-06-09T02:07:13.916Z,19.10
2018-06-09T02:09:42.643Z,19.00
2018-06-09T02:12:11.345Z,19.00
2018-06-09T02:14:40.066Z,19.00
2018-06-09T02:17:12.797Z,18.90
2018-06-09T02:19:41.497Z,18.90
2018-06-09T02:22:10.279Z,18.90
2018-06-09T02:24:39.033Z,18.90
2018-06-09T02:27:07.814Z,18.90
2018-06-09T02:29:36.557Z,18.90
2018-06-09T02:32:05.283Z,18.90
2018-06-09T02:34:40.825Z,18.90
2018-06-09T02:39:38.045Z,18.80
2018-06-09T02:42:06.765Z,18.80
2018-06-09T02:44:35.482Z,18.80
2018-06-09T02:47:04.744Z,18.80
2018-06-09T02:49:33.489Z,18.70
2018-06-09T02:52:02.238Z,18.70
2018-06-09T02:56:59.465Z,18.60
2018-06-09T02:59:28.183Z,18.60
2018-06-09T03:01:56.894Z,18.60
2018-06-09T03:04:26.849Z,18.50
2018-06-09T03:06:55.779Z,18.50
2018-06-09T03:09:24.469Z,18.50
2018-06-09T03:11:53.198Z,18.50
2018-06-09T03:14:21.917Z,18.50
2018-06-09T03:16:55.812Z,18.50
2018-06-09T03:19:24.583Z,18.50
2018-06-09T03:21:53.329Z,18.50
2018-06-09T03:24:22.090Z,18.50
2018-06-09T03:26:50.798Z,18.40
2018-06-09T03:29:19.549Z,18.40
2018-06-09T03:31:48.297Z,18.40
2018-06-09T03:34:17.021Z,18.40
2018-06-09T03:36:45.738Z,18.40
2018-06-09T03:39:14.446Z,18.40
2018-06-09T03:44:43.049Z,18.30
2018-06-09T03:47:11.824Z,18.30
2018-06-09T03:49:40.577Z,18.30
2018-06-09T03:52:09.336Z,18.30
2018-06-09T03:54:38.093Z,18.30
2018-06-09T03:57:06.843Z,18.30
2018-06-09T03:59:35.639Z,18.30
2018-06-09T04:02:04.761Z,18.30
2018-06-09T04:04:34.673Z,18.30
2018-06-09T04:07:03.385Z,18.30
2018-06-09T04:09:32.119Z,18.20
2018-06-09T04:12:00.861Z,18.20
2018-06-09T04:14:29.590Z,18.20
2018-06-09T04:16:58.297Z,18.20
2018-06-09T04:19:39.470Z,18.20
2018-06-09T04:22:08.196Z,18.30
2018-06-09T04:24:36.945Z,18.30
2018-06-09T04:27:05.649Z,18.30
2018-06-09T04:29:34.360Z,18.40
2018-06-09T04:32:03.222Z,18.40
2018-06-09T04:34:31.929Z,18.40
2018-06-09T04:37:00.666Z,18.40
2018-06-09T04:39:29.437Z,18.50
2018-06-09T04:41:58.158Z,18.50
2018-06-09T04:44:26.881Z,18.50
2018-06-09T04:46:55.618Z,18.60
2018-06-09T04:49:24.354Z,18.60
2018-06-09T04:51:53.073Z,18.60
2018-06-09T04:54:21.840Z,18.70
2018-06-09T04:56:50.706Z,18.70
2018-06-09T04:59:19.520Z,18.80
2018-06-09T05:01:48.169Z,18.80
2018-06-09T05:04:16.921Z,18.80
2018-06-09T05:06:45.673Z,18.80
2018-06-09T05:09:14.390Z,18.90
2018-06-09T05:11:43.125Z,18.90
2018-06-09T05:14:11.837Z,19.00
2018-06-09T05:16:40.610Z,19.00
2018-06-09T05:19:10.715Z,19.10
2018-06-09T05:21:39.452Z,19.20
2018-06-09T05:24:08.134Z,19.30
2018-06-09T05:26:37.025Z,19.30
2018-06-09T05:29:05.774Z,19.40
2018-06-09T05:31:34.509Z,19.40
2018-06-09T05:34:03.229Z,19.50
2018-06-09T05:36:31.945Z,19.50
2018-06-09T05:39:00.651Z,19.60
2018-06-09T05:41:29.394Z,19.70
2018-06-09T05:43:58.112Z,19.80
2018-06-09T05:46:26.829Z,19.90
2018-06-09T05:48:55.570Z,20.00
2018-06-09T05:51:24.308Z,20.10
2018-06-09T05:53:53.027Z,20.20
2018-06-09T05:56:21.758Z,20.20
2018-06-09T05:58:50.481Z,20.30
2018-06-09T06:01:19.203Z,20.30
2018-06-09T06:03:47.909Z,20.30
2018-06-09T06:06:16.652Z,20.20
2018-06-09T06:08:45.425Z,20.20
2018-06-09T06:11:14.137Z,20.30
2018-06-09T06:13:44.202Z,20.40
2018-06-09T06:16:12.934Z,20.40
2018-06-09T06:21:10.257Z,20.30
2018-06-09T06:23:39.034Z,20.40
2018-06-09T06:26:07.721Z,20.40
2018-06-09T06:28:36.437Z,20.50
2018-06-09T06:31:05.153Z,20.60
2018-06-09T06:33:33.899Z,20.60
2018-06-09T06:36:02.701Z,20.70
2018-06-09T06:38:31.462Z,20.70
2018-06-09T06:41:00.177Z,20.90
2018-06-09T06:43:28.933Z,21.00
2018-06-09T06:45:57.661Z,21.10
2018-06-09T06:48:26.393Z,21.20
2018-06-09T06:50:55.154Z,21.20
2018-06-09T06:53:23.854Z,21.20
2018-06-09T06:55:52.567Z,21.30
2018-06-09T06:58:21.290Z,21.30
2018-06-09T07:00:50.053Z,21.40
2018-06-09T07:03:18.941Z,21.60
2018-06-09T07:05:47.705Z,21.60
2018-06-09T07:08:16.532Z,21.60
2018-06-09T07:10:45.413Z,21.60
2018-06-09T07:13:14.181Z,21.60
2018-06-09T07:15:48.857Z,21.60
2018-06-09T07:18:17.617Z,21.60
2018-06-09T07:20:46.350Z,21.60
2018-06-09T07:23:15.214Z,21.60
2018-06-09T07:25:43.925Z,21.60
2018-06-09T07:28:12.653Z,21.60
2018-06-09T07:30:41.437Z,21.60
2018-06-09T07:33:10.157Z,21.60
2018-06-09T07:35:56.552Z,21.60
2018-06-09T07:38:25.313Z,21.70
2018-06-09T07:40:58.933Z,21.70
2018-06-09T07:43:27.660Z,21.80
2018-06-09T07:46:02.478Z,21.90
2018-06-09T07:48:31.182Z,21.90
2018-06-09T07:50:59.964Z,22.00
2018-06-09T07:53:28.669Z,22.00
2018-06-09T07:55:57.385Z,22.10
2018-06-09T07:58:26.115Z,22.10
2018-06-09T08:01:08.511Z,22.10
2018-06-09T08:03:37.245Z,22.20
2018-06-09T08:06:05.997Z,22.20
2018-06-09T08:08:34.773Z,22.30
2018-06-09T08:11:03.505Z,22.40
2018-06-09T08:13:32.242Z,22.40
2018-06-09T08:16:00.975Z,22.50
2018-06-09T08:18:29.699Z,22.50
2018-06-09T08:20:58.531Z,22.50
2018-06-09T08:23:27.429Z,22.60
2018-06-09T08:25:56.129Z,22.70
2018-06-09T08:28:24.910Z,22.70
2018-06-09T08:30:53.621Z,22.80
2018-06-09T08:33:22.334Z,22.90
2018-06-09T08:35:51.048Z,22.90
2018-06-09T08:38:19.793Z,23.00
2018-06-09T08:40:48.666Z,23.10
2018-06-09T08:43:17.371Z,23.20
2018-06-09T08:45:46.120Z,23.30
2018-06-09T08:48:14.866Z,23.40
2018-06-09T08:50:43.602Z,23.40
2018-06-09T08:53:19.237Z,23.50
2018-06-09T08:55:48.161Z,23.50
2018-06-09T08:58:16.905Z,23.60
2018-06-09T09:00:45.609Z,23.60
2018-06-09T09:03:25.641Z,23.70
2018-06-09T09:05:54.353Z,23.70
2018-06-09T09:08:23.089Z,23.80
2018-06-09T09:10:51.929Z,23.80
2018-06-09T09:13:20.701Z,23.90
2018-06-09T09:15:49.433Z,24.00
2018-06-09T09:18:18.141Z,24.10
2018-06-09T09:20:46.853Z,24.10
2018-06-09T09:23:18.017Z,24.20
2018-06-09T09:25:46.785Z,24.30
2018-06-09T09:28:15.581Z,24.30
2018-06-09T09:30:44.306Z,24.40
2018-06-09T09:33:13.021Z,24.50
2018-06-09T09:35:41.747Z,24.60
2018-06-09T09:38:11.765Z,24.70
2018-06-09T09:40:40.546Z,24.70
2018-06-09T09:43:09.265Z,24.80
2018-06-09T09:45:37.999Z,24.90
2018-06-09T09:48:06.713Z,25.00
2018-06-09T09:50:35.709Z,25.10
2018-06-09T09:53:04.487Z,25.10
2018-06-09T09:55:33.221Z,25.20
2018-06-09T09:58:02.717Z,25.20
2018-06-09T10:00:37.837Z,25.20
2018-06-09T10:03:06.747Z,25.30
2018-06-09T10:05:35.462Z,25.30
2018-06-09T10:10:33.131Z,25.40
2018-06-09T10:13:01.827Z,25.50
2018-06-09T10:15:30.605Z,25.60
2018-06-09T10:17:59.489Z,25.60
2018-06-09T10:20:28.185Z,25.60
2018-06-09T10:22:56.966Z,25.70
2018-06-09T10:25:25.708Z,25.80
2018-06-09T10:27:54.488Z,25.90
2018-06-09T10:30:23.254Z,25.90
2018-06-09T10:32:52.021Z,25.90
2018-06-09T10:35:20.674Z,26.00
2018-06-09T10:37:49.425Z,26.00
2018-06-09T10:40:18.173Z,26.10
2018-06-09T10:42:46.890Z,26.20
2018-06-09T10:45:15.608Z,26.20
2018-06-09T10:47:44.358Z,26.30
2018-06-09T10:50:13.073Z,26.30
2018-06-09T10:52:41.805Z,26.40
2018-06-09T10:55:10.560Z,26.50
2018-06-09T10:57:39.317Z,26.60
2018-06-09T11:00:08.071Z,26.60
2018-06-09T11:02:36.761Z,26.60
2018-06-09T11:05:05.501Z,26.70
2018-06-09T11:07:34.192Z,26.70
2018-06-09T11:10:02.974Z,26.70
2018-06-09T11:12:31.733Z,26.70
2018-06-09T11:15:00.461Z,26.80
2018-06-09T11:17:29.225Z,26.90
2018-06-09T11:19:58.021Z,26.90
2018-06-09T11:22:26.737Z,27.00
2018-06-09T11:24:55.489Z,27.00
2018-06-09T11:27:24.217Z,27.00
2018-06-09T11:29:52.909Z,27.10
2018-06-09T11:32:21.613Z,27.20
2018-06-09T11:34:50.478Z,27.30
2018-06-09T11:37:19.182Z,27.40
2018-06-09T11:39:47.886Z,27.50
2018-06-09T11:42:16.644Z,27.50
2018-06-09T11:44:45.349Z,27.50
2018-06-09T11:47:14.142Z,27.50
2018-06-09T11:49:42.781Z,27.60
2018-06-09T11:52:11.566Z,27.60
2018-06-09T11:54:40.325Z,27.60
2018-06-09T11:57:09.157Z,27.70
2018-06-09T11:59:38.014Z,27.70
2018-06-09T12:02:06.788Z,27.80
2018-06-09T12:04:35.510Z,27.80
2018-06-09T12:07:04.265Z,27.90
2018-06-09T12:09:33.045Z,27.90
2018-06-09T12:12:01.753Z,28.00
2018-06-09T12:14:30.445Z,28.00
2018-06-09T12:16:59.313Z,28.10
2018-06-09T12:19:28.209Z,28.10
2018-06-09T12:21:57.161Z,28.20
2018-06-09T12:24:25.851Z,28.20
2018-06-09T12:26:54.678Z,28.30
2018-06-09T12:29:23.434Z,28.30
2018-06-09T12:31:52.141Z,28.30
2018-06-09T12:34:20.854Z,28.40
2018-06-09T12:36:56.025Z,28.40
2018-06-09T12:39:24.826Z,28.40
2018-06-09T12:41:53.544Z,28.50
2018-06-09T12:44:22.249Z,28.60
2018-06-09T12:46:50.941Z,28.70
2018-06-09T12:49:19.721Z,28.70
2018-06-09T12:51:48.428Z,28.80
2018-06-09T12:54:17.337Z,28.90
2018-06-09T12:56:46.051Z,29.00
2018-06-09T12:59:14.759Z,29.10
2018-06-09T13:01:43.464Z,29.10
2018-06-09T13:04:12.178Z,29.10
2018-06-09T13:09:09.334Z,29.30
2018-06-09T13:11:38.185Z,29.40
2018-06-09T13:14:06.938Z,29.50
2018-06-09T13:16:35.577Z,29.50
2018-06-09T13:19:04.444Z,29.60
2018-06-09T13:21:33.185Z,29.50
2018-06-09T13:24:01.918Z,29.60
2018-06-09T13:26:30.621Z,29.70
2018-06-09T13:28:59.349Z,29.70
2018-06-09T13:31:28.062Z,29.80
2018-06-09T13:33:56.778Z,30.00
2018-06-09T13:36:25.474Z,30.00
2018-06-09T13:38:54.381Z,30.00
2018-06-09T13:41:23.080Z,30.10
2018-06-09T13:43:51.816Z,30.10
2018-06-09T13:46:20.550Z,30.20
2018-06-09T13:48:49.245Z,30.20
2018-06-09T13:51:17.985Z,30.30
2018-06-09T13:53:46.705Z,30.30
2018-06-09T13:56:15.421Z,30.30
2018-06-09T13:58:44.113Z,30.30
2018-06-09T14:01:12.862Z,30.30
2018-06-09T14:03:41.595Z,30.40
2018-06-09T14:06:10.444Z,30.50
2018-06-09T14:08:40.157Z,30.50
2018-06-09T14:11:08.881Z,30.50
2018-06-09T14:13:37.624Z,30.60
2018-06-09T14:16:06.357Z,30.70
2018-06-09T14:18:35.074Z,30.90
2018-06-09T14:21:03.806Z,31.10
2018-06-09T14:23:32.526Z,31.20
2018-06-09T14:26:01.250Z,31.20
2018-06-09T14:28:30.005Z,31.20
2018-06-09T14:30:58.722Z,31.20
2018-06-09T14:33:27.425Z,31.20
2018-06-09T14:35:56.129Z,31.20
2018-06-09T14:38:24.858Z,31.30
2018-06-09T14:40:53.569Z,31.30
2018-06-09T14:43:22.349Z,31.30
2018-06-09T14:45:51.101Z,31.40
2018-06-09T14:48:19.814Z,31.40
2018-06-09T14:50:48.698Z,31.30
2018-06-09T14:53:17.401Z,31.30
2018-06-09T14:55:46.110Z,31.30
2018-06-09T14:58:14.858Z,31.40
2018-06-09T15:00:43.577Z,31.40
2018-06-09T15:03:12.352Z,31.50
2018-06-09T15:05:41.111Z,31.50
2018-06-09T15:08:09.828Z,31.60
2018-06-09T15:10:38.541Z,31.50
2018-06-09T15:13:07.433Z,31.40
2018-06-09T15:15:36.141Z,31.30
2018-06-09T15:18:05.017Z,31.00
2018-06-09T15:20:35.729Z,30.90
2018-06-09T15:23:04.446Z,30.70
2018-06-09T15:25:33.302Z,30.50
2018-06-09T15:28:02.093Z,30.30
2018-06-09T15:30:30.799Z,30.00
2018-06-09T15:32:59.514Z,29.80
2018-06-09T15:35:28.281Z,29.70
2018-06-09T15:37:57.041Z,29.60
2018-06-09T15:40:25.751Z,29.50
2018-06-09T15:42:54.505Z,29.40
2018-06-09T15:45:23.269Z,29.30
2018-06-09T15:47:51.993Z,29.30
2018-06-09T15:50:20.853Z,29.20
2018-06-09T15:52:49.642Z,29.20
2018-06-09T15:57:46.841Z,29.10
2018-06-09T16:00:15.562Z,29.00
2018-06-09T16:02:44.311Z,29.00
2018-06-09T16:05:13.025Z,28.90
2018-06-09T16:07:42.478Z,28.90
2018-06-09T16:10:11.204Z,28.80
2018-06-09T16:12:39.951Z,28.60
2018-06-09T16:15:08.825Z,28.30
2018-06-09T16:17:37.553Z,28.00
2018-06-09T16:20:06.315Z,27.60
2018-06-09T16:22:35.049Z,27.40
2018-06-09T16:25:03.765Z,27.20
2018-06-09T16:27:32.466Z,27.10
2018-06-09T16:30:01.232Z,27.10
2018-06-09T16:32:29.943Z,27.10
2018-06-09T16:34:58.715Z,27.00
2018-06-09T16:37:27.389Z,27.10
2018-06-09T16:39:56.086Z,27.10
2018-06-09T16:42:24.809Z,27.00
2018-06-09T16:44:53.562Z,26.90
2018-06-09T16:47:22.266Z,26.80
2018-06-09T16:49:50.980Z,26.70
2018-06-09T16:52:19.698Z,26.60
2018-06-09T16:54:48.488Z,26.60
2018-06-09T16:57:17.229Z,26.70
2018-06-09T16:59:45.992Z,26.80
2018-06-09T17:02:14.690Z,26.80
2018-06-09T17:04:44.519Z,26.70
2018-06-09T17:07:13.205Z,26.60
2018-06-09T17:09:41.954Z,26.60
2018-06-09T17:12:10.657Z,26.60
2018-06-09T17:14:39.402Z,26.60
2018-06-09T17:17:08.117Z,26.60
2018-06-09T17:19:36.839Z,26.50
2018-06-09T17:22:05.753Z,26.50
2018-06-09T17:24:34.461Z,26.40
2018-06-09T17:27:03.177Z,26.40
2018-06-09T17:29:31.906Z,26.40
2018-06-09T17:32:00.635Z,26.30
2018-06-09T17:34:29.369Z,26.20
2018-06-09T17:36:58.106Z,26.00
2018-06-09T17:39:30.791Z,26.00
2018-06-09T17:41:59.507Z,25.90
2018-06-09T17:44:28.249Z,25.80
2018-06-09T17:46:56.961Z,25.70
2018-06-09T17:49:25.656Z,25.70
2018-06-09T17:51:54.360Z,25.60
2018-06-09T17:54:23.103Z,25.50
2018-06-09T17:56:51.804Z,25.30
2018-06-09T17:59:20.502Z,25.20
2018-06-09T18:01:49.255Z,25.10
2018-06-09T18:04:17.980Z,25.10
2018-06-09T18:06:46.707Z,25.00
2018-06-09T18:09:15.417Z,24.90
2018-06-09T18:11:44.149Z,24.80
2018-06-09T18:14:12.873Z,24.70
2018-06-09T18:16:41.609Z,24.60
2018-06-09T18:19:10.313Z,24.40
2018-06-09T18:21:39.017Z,24.20
2018-06-09T18:24:07.737Z,24.00
2018-06-09T18:26:36.662Z,23.80
2018-06-09T18:29:05.442Z,23.70
2018-06-09T18:31:34.145Z,23.70
2018-06-09T18:34:02.932Z,23.60
2018-06-09T18:36:31.589Z,23.60
2018-06-09T18:39:00.294Z,23.50
2018-06-09T18:41:29.001Z,23.40
2018-06-09T18:44:02.781Z,23.40
2018-06-09T18:46:31.521Z,23.30
2018-06-09T18:49:01.007Z,23.30
2018-06-09T18:51:40.562Z,23.20
2018-06-09T18:54:09.310Z,23.20
2018-06-09T18:56:38.043Z,23.20
2018-06-09T18:59:06.905Z,23.20
2018-06-09T19:01:35.626Z,23.10
2018-06-09T19:04:04.388Z,23.00
2018-06-09T19:09:01.550Z,22.80
2018-06-09T19:11:30.254Z,22.80
2018-06-09T19:13:59.381Z,22.90
2018-06-09T19:16:28.148Z,22.80
2018-06-09T19:18:56.891Z,22.80
2018-06-09T19:21:25.937Z,22.80
2018-06-09T19:23:54.606Z,22.70
2018-06-09T19:26:23.521Z,22.70
2018-06-09T19:28:52.293Z,22.60
2018-06-09T19:31:25.058Z,22.60
2018-06-09T19:33:53.805Z,22.40
2018-06-09T19:36:23.394Z,22.20
2018-06-09T19:38:52.125Z,22.10
2018-06-09T19:41:20.850Z,22.00
2018-06-09T19:43:49.658Z,22.00
2018-06-09T19:46:18.417Z,21.90
2018-06-09T19:48:48.305Z,21.90
2018-06-09T19:51:17.157Z,21.90
2018-06-09T19:53:45.901Z,21.90
2018-06-09T19:56:14.654Z,21.90
2018-06-09T19:58:43.397Z,21.90
2018-06-09T20:01:12.137Z,21.80
2018-06-09T20:06:09.413Z,21.60
2018-06-09T20:08:38.170Z,21.60
2018-06-09T20:11:06.818Z,21.60
2018-06-09T20:13:35.529Z,21.70
2018-06-09T20:16:04.284Z,21.70
2018-06-09T20:18:32.984Z,21.70
2018-06-09T20:21:01.685Z,21.60
2018-06-09T20:23:32.713Z,21.60
2018-06-09T20:26:04.745Z,21.60
2018-06-09T20:28:33.671Z,21.60
2018-06-09T20:31:02.454Z,21.50
2018-06-09T20:33:31.174Z,21.50
2018-06-09T20:35:59.913Z,21.40
2018-06-09T20:38:28.640Z,21.50
2018-06-09T20:41:15.219Z,21.50
2018-06-09T20:43:43.906Z,21.40
2018-06-09T20:46:12.640Z,21.30
2018-06-09T20:48:41.454Z,21.20
2018-06-09T20:51:10.949Z,20.90
2018-06-09T20:53:39.681Z,21.00
2018-06-09T20:56:08.553Z,21.00
2018-06-09T20:58:39.816Z,21.00
2018-06-09T21:01:08.610Z,21.00
2018-06-09T21:03:37.360Z,21.10
2018-06-09T21:06:06.050Z,21.00
2018-06-09T21:08:34.761Z,21.00
2018-06-09T21:11:03.609Z,21.00
2018-06-09T21:13:32.334Z,21.00
2018-06-09T21:16:01.037Z,21.00
2018-06-09T21:18:29.897Z,21.00
2018-06-09T21:20:58.589Z,20.90
2018-06-09T21:23:27.313Z,20.80
2018-06-09T21:25:56.026Z,20.70
2018-06-09T21:28:24.737Z,20.60
2018-06-09T21:30:58.884Z,20.50
2018-06-09T21:33:44.497Z,20.50
2018-06-09T21:36:20.746Z,20.40
2018-06-09T21:38:54.752Z,20.40
2018-06-09T21:41:27.693Z,20.40
2018-06-09T21:44:00.828Z,20.40
2018-06-09T21:46:34.941Z,20.50
2018-06-09T21:49:03.714Z,20.50
2018-06-09T21:51:32.465Z,20.50
2018-06-09T21:54:01.197Z,20.60
2018-06-09T21:56:29.906Z,20.60
2018-06-09T21:58:58.638Z,20.50
2018-06-09T22:01:27.517Z,20.60
2018-06-09T22:04:01.842Z,20.60
2018-06-09T22:06:30.569Z,20.60
2018-06-09T22:08:59.302Z,20.60
2018-06-09T22:11:28.045Z,20.60
2018-06-09T22:13:56.770Z,20.60
2018-06-09T22:16:26.173Z,20.60
2018-06-09T22:18:54.887Z,20.60
2018-06-09T22:21:23.633Z,20.70
2018-06-09T22:23:58.434Z,20.70
2018-06-09T22:26:27.133Z,20.70
2018-06-09T22:28:55.895Z,20.70
2018-06-09T22:31:24.641Z,20.70
2018-06-09T22:33:53.373Z,20.50
2018-06-09T22:36:22.123Z,20.40
2018-06-09T22:38:50.836Z,20.40
2018-06-09T22:41:19.564Z,20.50
2018-06-09T22:43:48.421Z,20.50
2018-06-09T22:46:17.158Z,20.40
2018-06-09T22:48:45.893Z,20.40
2018-06-09T22:51:14.641Z,20.30
2018-06-09T22:53:43.383Z,20.40
2018-06-09T22:56:12.094Z,20.40
2018-06-09T22:58:40.789Z,20.40
2018-06-09T23:01:09.546Z,20.50
2018-06-09T23:03:38.266Z,20.50
2018-06-09T23:06:07.074Z,20.40
2018-06-09T23:08:35.817Z,20.50
2018-06-09T23:11:04.545Z,20.40
2018-06-09T23:13:33.241Z,20.40
2018-06-09T23:16:01.984Z,20.40
2018-06-09T23:18:30.861Z,20.40
2018-06-09T23:20:59.573Z,20.40
2018-06-09T23:23:28.277Z,20.40
2018-06-09T23:25:56.998Z,20.40
2018-06-09T23:28:25.877Z,20.40
2018-06-09T23:35:51.489Z,20.50
2018-06-09T23:38:20.193Z,20.50
2018-06-09T23:40:49.069Z,20.40
2018-06-09T23:43:17.771Z,20.40
2018-06-09T23:45:46.470Z,20.40
2018-06-09T23:48:15.409Z,20.40
2018-06-09T23:50:44.148Z,20.40
2018-06-09T23:53:12.887Z,20.40
2018-06-09T23:55:41.590Z,20.40
2018-06-09T23:58:10.305Z,20.30
